createdAt,value
2018-04-27T00:00:16.007Z,4.15
2018-04-27T00:00:49.757Z,4.28
2018-04-27T00:01:23.574Z,4.30
2018-04-27T00:01:58.076Z,4.40
2018-04-27T00:02:31.796Z,4.07
2018-04-27T00:03:05.184Z,4.00
2018-04-27T00:03:38.906Z,3.45
2018-04-27T00:04:12.624Z,3.58
2018-04-27T00:04:46.358Z,3.60
2018-04-27T00:05:19.858Z,4.20
2018-04-27T00:05:53.618Z,4.20
2018-04-27T00:06:28.086Z,4.03
2018-04-27T00:07:01.805Z,4.00
2018-04-27T00:07:36.310Z,4.20
2018-04-27T00:08:10.803Z,4.20
2018-04-27T00:08:44.512Z,3.80
2018-04-27T00:09:18.994Z,4.00
2018-04-27T00:09:52.735Z,4.18
2018-04-27T00:10:26.454Z,4.82
2018-04-27T00:11:00.205Z,3.95
2018-04-27T00:11:34.672Z,3.55
2018-04-27T00:12:08.414Z,4.40
2018-04-27T00:12:42.138Z,3.35
2018-04-27T00:13:15.868Z,4.35
2018-04-27T00:13:49.366Z,4.40
2018-04-27T00:14:23.864Z,4.47
2018-04-27T00:14:57.578Z,4.18
2018-04-27T00:15:31.318Z,4.30
2018-04-27T00:16:05.078Z,3.85
2018-04-27T00:16:38.798Z,4.60
2018-04-27T00:17:12.516Z,4.43
2018-04-27T00:17:46.232Z,4.65
2018-04-27T00:18:19.946Z,4.15
2018-04-27T00:18:53.681Z,3.80
2018-04-27T00:19:27.406Z,4.03
2018-04-27T00:20:01.142Z,4.22
2018-04-27T00:20:34.921Z,4.20
2018-04-27T00:21:08.677Z,4.00
2018-04-27T00:21:42.416Z,4.00
2018-04-27T00:22:16.129Z,4.60
2018-04-27T00:22:49.848Z,4.43
2018-04-27T00:23:23.585Z,4.18
2018-04-27T00:23:57.099Z,4.05
2018-04-27T00:24:31.603Z,4.20
2018-04-27T00:25:05.327Z,4.10
2018-04-27T00:25:39.039Z,3.90
2018-04-27T00:26:12.783Z,4.40
2018-04-27T00:26:47.283Z,4.50
2018-04-27T00:27:21.006Z,5.12
2018-04-27T00:27:54.719Z,4.20
2018-04-27T00:28:28.431Z,4.30
2018-04-27T00:29:02.183Z,4.18
2018-04-27T00:29:35.913Z,4.15
2018-04-27T00:30:09.657Z,4.35
2018-04-27T00:30:43.397Z,4.68
2018-04-27T00:31:17.156Z,4.40
2018-04-27T00:31:50.881Z,4.22
2018-04-27T00:32:24.609Z,4.40
2018-04-27T00:32:59.117Z,4.93
2018-04-27T00:33:33.393Z,4.30
2018-04-27T00:34:07.125Z,5.10
2018-04-27T00:34:40.621Z,4.80
2018-04-27T00:35:14.347Z,4.43
2018-04-27T00:35:48.077Z,4.90
2018-04-27T00:36:22.596Z,4.95
2018-04-27T00:36:57.084Z,4.25
2018-04-27T00:37:30.815Z,4.53
2018-04-27T00:38:04.298Z,4.55
2018-04-27T00:38:38.024Z,4.45
2018-04-27T00:39:11.733Z,4.72
2018-04-27T00:39:45.452Z,4.60
2018-04-27T00:40:19.934Z,4.60
2018-04-27T00:40:53.663Z,3.80
2018-04-27T00:41:27.414Z,5.00
2018-04-27T00:42:01.141Z,4.55
2018-04-27T00:42:35.645Z,4.95
2018-04-27T00:43:09.554Z,4.60
2018-04-27T00:43:43.278Z,4.55
2018-04-27T00:44:16.996Z,4.40
2018-04-27T00:44:50.718Z,5.35
2018-04-27T00:45:24.440Z,4.85
2018-04-27T00:45:58.164Z,5.00
2018-04-27T00:46:31.898Z,4.57
2018-04-27T00:47:05.624Z,5.37
2018-04-27T00:47:39.358Z,5.25
2018-04-27T00:48:13.850Z,5.05
2018-04-27T00:48:47.582Z,4.90
2018-04-27T00:49:21.313Z,4.70
2018-04-27T00:49:55.039Z,4.87
2018-04-27T00:50:29.526Z,5.32
2018-04-27T00:51:03.273Z,4.97
2018-04-27T00:51:37.020Z,4.65
2018-04-27T00:52:10.726Z,4.70
2018-04-27T00:52:56.575Z,4.87
2018-04-27T00:53:31.067Z,5.50
2018-04-27T00:54:04.797Z,5.40
2018-04-27T00:54:39.286Z,4.75
2018-04-27T00:55:13.116Z,4.87
2018-04-27T00:55:46.840Z,4.65
2018-04-27T00:56:20.599Z,4.85
2018-04-27T00:56:53.980Z,5.12
2018-04-27T00:57:27.759Z,4.62
2018-04-27T00:58:02.264Z,4.65
2018-04-27T00:58:36.829Z,4.80
2018-04-27T00:59:10.563Z,5.00
2018-04-27T00:59:45.055Z,4.80
2018-04-27T01:00:18.784Z,4.60
2018-04-27T01:00:52.504Z,5.05
2018-04-27T01:01:26.269Z,5.32
2018-04-27T01:02:00.108Z,5.37
2018-04-27T01:02:33.828Z,4.95
2018-04-27T01:03:08.314Z,4.50
2018-04-27T01:03:42.048Z,4.93
2018-04-27T01:04:15.777Z,5.30
2018-04-27T01:04:49.509Z,5.60
2018-04-27T01:05:23.219Z,4.72
2018-04-27T01:05:56.953Z,5.35
2018-04-27T01:06:30.701Z,4.50
2018-04-27T01:07:04.425Z,5.55
2018-04-27T01:07:38.211Z,5.37
2018-04-27T01:08:11.933Z,5.07
2018-04-27T01:08:46.439Z,4.75
2018-04-27T01:09:20.299Z,4.72
2018-04-27T01:09:54.125Z,5.00
2018-04-27T01:10:27.991Z,5.28
2018-04-27T01:11:01.855Z,4.85
2018-04-27T01:11:35.671Z,4.80
2018-04-27T01:12:09.397Z,5.40
2018-04-27T01:12:43.277Z,4.95
2018-04-27T01:13:17.005Z,4.78
2018-04-27T01:13:50.720Z,4.22
2018-04-27T01:14:24.453Z,4.30
2018-04-27T01:14:59.330Z,4.90
2018-04-27T01:15:33.041Z,5.45
2018-04-27T01:16:07.002Z,5.20
2018-04-27T01:16:40.779Z,5.15
2018-04-27T01:17:15.493Z,4.28
2018-04-27T01:17:49.234Z,4.93
2018-04-27T01:18:22.993Z,4.30
2018-04-27T01:18:57.483Z,4.28
2018-04-27T01:19:31.216Z,4.50
2018-04-27T01:20:04.621Z,4.00
2018-04-27T01:20:37.681Z,4.43
2018-04-27T01:21:12.473Z,5.50
2018-04-27T01:21:46.215Z,4.55
2018-04-27T01:22:19.947Z,4.50
2018-04-27T01:22:55.120Z,4.80
2018-04-27T01:23:29.339Z,4.50
2018-04-27T01:24:03.713Z,4.55
2018-04-27T01:24:37.432Z,4.15
2018-04-27T01:25:11.684Z,4.78
2018-04-27T01:25:45.408Z,4.65
2018-04-27T01:26:19.135Z,4.50
2018-04-27T01:26:52.911Z,4.93
2018-04-27T01:27:26.641Z,4.95
2018-04-27T01:28:01.837Z,4.60
2018-04-27T01:28:35.565Z,4.22
2018-04-27T01:29:09.303Z,4.53
2018-04-27T01:29:43.020Z,4.70
2018-04-27T01:30:16.733Z,4.40
2018-04-27T01:30:51.207Z,4.55
2018-04-27T01:31:24.930Z,4.82
2018-04-27T01:31:58.702Z,4.60
2018-04-27T01:32:33.200Z,4.60
2018-04-27T01:33:08.541Z,4.72
2018-04-27T01:33:43.052Z,4.78
2018-04-27T01:34:17.542Z,4.65
2018-04-27T01:34:51.266Z,4.25
2018-04-27T01:35:24.992Z,4.85
2018-04-27T01:35:58.714Z,4.32
2018-04-27T01:36:32.540Z,4.65
2018-04-27T01:37:07.047Z,4.50
2018-04-27T01:37:40.774Z,4.20
2018-04-27T01:38:14.482Z,4.25
2018-04-27T01:38:48.195Z,4.90
2018-04-27T01:39:21.908Z,4.45
2018-04-27T01:39:55.630Z,4.53
2018-04-27T01:40:29.344Z,4.47
2018-04-27T01:41:03.190Z,4.93
2018-04-27T01:41:36.918Z,4.90
2018-04-27T01:42:10.662Z,4.43
2018-04-27T01:42:45.138Z,4.70
2018-04-27T01:43:18.862Z,4.85
2018-04-27T01:43:53.360Z,5.25
2018-04-27T01:44:27.848Z,4.87
2018-04-27T01:45:01.565Z,5.25
2018-04-27T01:45:36.296Z,4.28
2018-04-27T01:46:10.011Z,5.03
2018-04-27T01:46:44.339Z,5.65
2018-04-27T01:47:18.077Z,5.95
2018-04-27T01:47:51.850Z,4.62
2018-04-27T01:48:26.347Z,4.93
2018-04-27T01:49:00.833Z,5.32
2018-04-27T01:49:36.352Z,5.10
2018-04-27T01:50:09.737Z,4.68
2018-04-27T01:50:45.710Z,4.80
2018-04-27T01:51:19.440Z,4.37
2018-04-27T01:51:53.164Z,5.32
2018-04-27T01:52:26.892Z,4.75
2018-04-27T01:53:00.618Z,5.80
2018-04-27T01:53:34.348Z,5.30
2018-04-27T01:54:08.068Z,5.35
2018-04-27T01:54:42.564Z,4.90
2018-04-27T01:55:16.278Z,4.25
2018-04-27T01:55:50.778Z,5.75
2018-04-27T01:56:25.282Z,5.72
2018-04-27T01:56:59.023Z,4.65
2018-04-27T01:57:32.784Z,5.37
2018-04-27T01:58:07.280Z,4.70
2018-04-27T01:58:41.770Z,5.22
2018-04-27T01:59:15.514Z,4.75
2018-04-27T01:59:49.268Z,5.40
2018-04-27T02:00:23.772Z,5.22
2018-04-27T02:00:57.503Z,4.72
2018-04-27T02:01:31.238Z,4.93
2018-04-27T02:02:04.306Z,5.53
2018-04-27T02:02:38.061Z,5.45
2018-04-27T02:03:11.809Z,5.18
2018-04-27T02:03:46.326Z,4.78
2018-04-27T02:04:20.058Z,5.12
2018-04-27T02:04:53.799Z,5.10
2018-04-27T02:05:27.832Z,5.10
2018-04-27T02:06:01.596Z,5.43
2018-04-27T02:06:35.481Z,5.20
2018-04-27T02:07:09.212Z,5.57
2018-04-27T02:07:42.964Z,5.45
2018-04-27T02:08:17.448Z,5.75
2018-04-27T02:08:51.168Z,4.85
2018-04-27T02:09:24.895Z,5.95
2018-04-27T02:09:58.618Z,5.30
2018-04-27T02:10:32.110Z,5.32
2018-04-27T02:11:05.285Z,5.25
2018-04-27T02:11:39.018Z,5.25
2018-04-27T02:12:13.617Z,4.80
2018-04-27T02:12:47.902Z,4.90
2018-04-27T02:13:21.602Z,5.05
2018-04-27T02:13:55.319Z,5.20
2018-04-27T02:14:29.064Z,5.00
2018-04-27T02:15:02.785Z,5.43
2018-04-27T02:15:37.034Z,5.32
2018-04-27T02:16:10.768Z,4.85
2018-04-27T02:16:44.482Z,4.97
2018-04-27T02:17:18.638Z,4.80
2018-04-27T02:17:52.414Z,5.70
2018-04-27T02:18:26.136Z,5.72
2018-04-27T02:18:59.868Z,5.30
2018-04-27T02:19:33.604Z,4.82
2018-04-27T02:20:07.360Z,5.45
2018-04-27T02:20:41.197Z,5.05
2018-04-27T02:21:15.822Z,5.12
2018-04-27T02:21:49.538Z,4.40
2018-04-27T02:22:23.260Z,5.32
2018-04-27T02:22:56.791Z,4.80
2018-04-27T02:23:30.523Z,4.70
2018-04-27T02:24:04.249Z,4.70
2018-04-27T02:24:37.959Z,4.57
2018-04-27T02:25:11.678Z,5.87
2018-04-27T02:25:46.151Z,5.00
2018-04-27T02:26:19.972Z,5.32
2018-04-27T02:26:54.792Z,4.65
2018-04-27T02:27:29.286Z,5.15
2018-04-27T02:28:03.031Z,5.45
2018-04-27T02:28:36.765Z,5.87
2018-04-27T02:29:10.598Z,5.10
2018-04-27T02:29:44.328Z,5.45
2018-04-27T02:30:18.779Z,5.07
2018-04-27T02:30:52.539Z,5.25
2018-04-27T02:31:26.256Z,4.80
2018-04-27T02:32:00.751Z,5.57
2018-04-27T02:32:34.507Z,5.35
2018-04-27T02:33:08.250Z,4.75
2018-04-27T02:33:42.729Z,5.65
2018-04-27T02:34:16.459Z,5.35
2018-04-27T02:34:50.186Z,5.18
2018-04-27T02:35:23.912Z,5.40
2018-04-27T02:35:58.404Z,5.10
2018-04-27T02:36:32.128Z,5.15
2018-04-27T02:37:05.854Z,4.93
2018-04-27T02:37:39.582Z,4.85
2018-04-27T02:38:13.329Z,5.62
2018-04-27T02:38:47.059Z,5.50
2018-04-27T02:39:20.779Z,4.93
2018-04-27T02:39:55.279Z,5.45
2018-04-27T02:40:29.829Z,5.20
2018-04-27T02:41:03.709Z,5.10
2018-04-27T02:41:37.451Z,6.28
2018-04-27T02:42:11.167Z,5.28
2018-04-27T02:42:45.695Z,5.10
2018-04-27T02:43:19.423Z,5.40
2018-04-27T02:43:53.151Z,4.65
2018-04-27T02:44:26.852Z,5.75
2018-04-27T02:45:01.329Z,5.47
2018-04-27T02:45:34.715Z,5.57
2018-04-27T02:46:08.426Z,4.85
2018-04-27T02:46:42.913Z,5.10
2018-04-27T02:47:16.289Z,5.80
2018-04-27T02:47:50.024Z,5.62
2018-04-27T02:48:23.923Z,5.25
2018-04-27T02:48:57.630Z,6.00
2018-04-27T02:49:31.357Z,6.00
2018-04-27T02:50:04.417Z,5.03
2018-04-27T02:50:38.126Z,5.00
2018-04-27T02:51:11.845Z,5.40
2018-04-27T02:51:46.325Z,5.10
2018-04-27T02:52:20.059Z,5.20
2018-04-27T02:52:53.792Z,5.15
2018-04-27T02:53:27.328Z,6.15
2018-04-27T02:54:01.824Z,5.40
2018-04-27T02:54:36.319Z,5.47
2018-04-27T02:55:11.538Z,6.00
2018-04-27T02:55:45.274Z,5.35
2018-04-27T02:56:18.979Z,5.57
2018-04-27T02:56:52.718Z,4.95
2018-04-27T02:57:26.216Z,5.22
2018-04-27T02:58:00.786Z,5.65
2018-04-27T02:58:34.654Z,5.40
2018-04-27T02:59:08.144Z,5.80
2018-04-27T02:59:41.872Z,5.65
2018-04-27T03:00:15.606Z,5.95
2018-04-27T03:00:49.332Z,5.70
2018-04-27T03:01:23.044Z,5.95
2018-04-27T03:01:56.781Z,6.40
2018-04-27T03:02:30.520Z,6.87
2018-04-27T03:03:04.242Z,7.45
2018-04-27T03:03:38.764Z,6.28
2018-04-27T03:04:13.258Z,6.32
2018-04-27T03:04:46.971Z,6.10
2018-04-27T03:05:20.692Z,5.87
2018-04-27T03:05:54.406Z,5.43
2018-04-27T03:06:28.114Z,5.60
2018-04-27T03:07:01.845Z,5.87
2018-04-27T03:07:35.574Z,6.12
2018-04-27T03:08:09.316Z,6.35
2018-04-27T03:08:43.058Z,6.53
2018-04-27T03:09:16.768Z,6.00
2018-04-27T03:09:50.258Z,5.60
2018-04-27T03:10:23.642Z,5.80
2018-04-27T03:10:58.142Z,6.72
2018-04-27T03:11:31.873Z,6.30
2018-04-27T03:12:05.279Z,6.65
2018-04-27T03:12:39.012Z,7.32
2018-04-27T03:13:12.726Z,6.68
2018-04-27T03:13:46.476Z,6.45
2018-04-27T03:14:20.203Z,5.82
2018-04-27T03:14:54.698Z,6.10
2018-04-27T03:15:29.202Z,6.18
2018-04-27T03:16:03.357Z,5.80
2018-04-27T03:16:37.093Z,6.07
2018-04-27T03:17:10.814Z,6.55
2018-04-27T03:17:44.534Z,6.00
2018-04-27T03:18:18.269Z,6.25
2018-04-27T03:18:52.828Z,5.95
2018-04-27T03:19:26.557Z,6.57
2018-04-27T03:20:00.268Z,5.72
2018-04-27T03:20:34.750Z,6.53
2018-04-27T03:21:08.572Z,5.70
2018-04-27T03:21:42.320Z,7.32
2018-04-27T03:22:16.042Z,6.05
2018-04-27T03:22:49.763Z,5.20
2018-04-27T03:23:23.500Z,6.15
2018-04-27T03:23:57.252Z,5.70
2018-04-27T03:24:30.971Z,6.03
2018-04-27T03:25:04.132Z,5.60
2018-04-27T03:25:37.836Z,5.10
2018-04-27T03:26:11.562Z,5.57
2018-04-27T03:26:45.274Z,5.43
2018-04-27T03:27:19.014Z,5.78
2018-04-27T03:27:52.736Z,5.50
2018-04-27T03:28:26.454Z,5.45
2018-04-27T03:29:00.228Z,5.95
2018-04-27T03:29:34.726Z,5.72
2018-04-27T03:30:08.445Z,5.80
2018-04-27T03:30:42.163Z,5.82
2018-04-27T03:31:15.891Z,5.53
2018-04-27T03:31:49.611Z,5.00
2018-04-27T03:32:23.335Z,6.10
2018-04-27T03:32:57.064Z,5.55
2018-04-27T03:33:31.542Z,5.30
2018-04-27T03:34:04.968Z,5.97
2018-04-27T03:34:39.452Z,5.05
2018-04-27T03:35:13.153Z,5.75
2018-04-27T03:35:46.876Z,5.43
2018-04-27T03:36:21.417Z,5.45
2018-04-27T03:36:56.070Z,5.78
2018-04-27T03:37:29.804Z,5.12
2018-04-27T03:38:03.523Z,5.65
2018-04-27T03:38:37.267Z,6.07
2018-04-27T03:39:11.785Z,6.70
2018-04-27T03:39:45.499Z,4.90
2018-04-27T03:40:19.229Z,5.22
2018-04-27T03:40:52.962Z,5.00
2018-04-27T03:41:26.664Z,5.97
2018-04-27T03:42:00.395Z,5.87
2018-04-27T03:42:34.117Z,5.15
2018-04-27T03:43:08.596Z,5.35
2018-04-27T03:43:43.090Z,5.47
2018-04-27T03:44:16.827Z,5.30
2018-04-27T03:44:50.548Z,5.12
2018-04-27T03:45:24.316Z,5.47
2018-04-27T03:45:59.004Z,5.68
2018-04-27T03:46:32.727Z,5.60
2018-04-27T03:47:06.366Z,5.80
2018-04-27T03:47:40.104Z,5.90
2018-04-27T03:48:13.816Z,5.50
2018-04-27T03:48:47.544Z,5.25
2018-04-27T03:49:21.032Z,5.15
2018-04-27T03:49:54.645Z,6.20
2018-04-27T03:50:28.371Z,5.72
2018-04-27T03:51:02.100Z,5.32
2018-04-27T03:51:35.830Z,5.22
2018-04-27T03:52:09.535Z,6.12
2018-04-27T03:52:43.249Z,5.80
2018-04-27T03:53:16.969Z,5.50
2018-04-27T03:53:50.484Z,5.80
2018-04-27T03:54:24.237Z,5.30
2018-04-27T03:54:57.960Z,4.90
2018-04-27T03:55:31.681Z,5.25
2018-04-27T03:56:05.397Z,5.72
2018-04-27T03:56:39.126Z,7.20
2018-04-27T03:57:13.613Z,6.28
2018-04-27T03:57:47.326Z,6.25
2018-04-27T03:58:21.812Z,5.85
2018-04-27T03:58:55.541Z,5.37
2018-04-27T03:59:40.552Z,6.43
2018-04-27T04:00:25.508Z,5.70
2018-04-27T04:01:10.420Z,5.78
2018-04-27T04:01:55.502Z,5.62
2018-04-27T04:02:40.475Z,5.97
2018-04-27T04:03:25.276Z,5.25
2018-04-27T04:04:10.334Z,5.53
2018-04-27T04:04:55.349Z,5.60
2018-04-27T04:05:29.185Z,5.70
2018-04-27T04:06:02.931Z,6.30
2018-04-27T04:06:37.428Z,5.55
2018-04-27T04:07:11.156Z,5.90
2018-04-27T04:07:44.864Z,5.55
2018-04-27T04:08:18.778Z,5.87
2018-04-27T04:08:52.513Z,5.50
2018-04-27T04:09:27.005Z,5.70
2018-04-27T04:10:00.747Z,6.10
2018-04-27T04:10:34.471Z,5.87
2018-04-27T04:11:08.191Z,6.40
2018-04-27T04:11:42.703Z,7.75
2018-04-27T04:12:17.201Z,6.00
2018-04-27T04:12:50.967Z,5.62
2018-04-27T04:13:24.676Z,4.90
2018-04-27T04:13:58.400Z,5.00
2018-04-27T04:14:32.134Z,5.47
2018-04-27T04:15:05.902Z,6.05
2018-04-27T04:15:39.386Z,5.30
2018-04-27T04:16:13.140Z,5.50
2018-04-27T04:16:47.653Z,5.15
2018-04-27T04:17:22.149Z,5.32
2018-04-27T04:17:55.870Z,5.32
2018-04-27T04:18:29.373Z,5.20
2018-04-27T04:19:03.106Z,4.65
2018-04-27T04:19:36.486Z,5.20
2018-04-27T04:20:10.214Z,4.95
2018-04-27T04:20:44.694Z,5.30
2018-04-27T04:21:18.409Z,4.95
2018-04-27T04:21:52.157Z,5.45
2018-04-27T04:22:25.898Z,6.22
2018-04-27T04:23:00.383Z,5.05
2018-04-27T04:23:34.121Z,4.75
2018-04-27T04:24:07.833Z,4.50
2018-04-27T04:24:41.538Z,4.75
2018-04-27T04:25:15.281Z,4.80
2018-04-27T04:25:49.003Z,5.18
2018-04-27T04:26:22.742Z,5.12
2018-04-27T04:26:57.230Z,4.53
2018-04-27T04:27:30.945Z,4.90
2018-04-27T04:28:05.440Z,5.10
2018-04-27T04:28:39.922Z,5.00
2018-04-27T04:29:13.628Z,5.50
2018-04-27T04:29:47.350Z,5.05
2018-04-27T04:30:21.137Z,5.87
2018-04-27T04:30:55.617Z,4.68
2018-04-27T04:31:29.328Z,4.95
2018-04-27T04:32:03.872Z,4.90
2018-04-27T04:32:37.627Z,5.70
2018-04-27T04:33:11.342Z,5.20
2018-04-27T04:33:45.056Z,5.47
2018-04-27T04:34:18.788Z,5.37
2018-04-27T04:34:52.504Z,4.90
2018-04-27T04:35:26.247Z,4.82
2018-04-27T04:35:59.958Z,5.18
2018-04-27T04:36:33.689Z,5.40
2018-04-27T04:37:07.436Z,4.62
2018-04-27T04:37:41.183Z,5.18
2018-04-27T04:38:14.950Z,5.70
2018-04-27T04:38:48.837Z,5.50
2018-04-27T04:39:23.320Z,4.70
2018-04-27T04:39:57.035Z,4.90
2018-04-27T04:40:31.564Z,4.75
2018-04-27T04:41:05.293Z,5.93
2018-04-27T04:41:39.004Z,5.32
2018-04-27T04:42:12.724Z,5.07
2018-04-27T04:42:46.442Z,4.90
2018-04-27T04:43:20.172Z,5.40
2018-04-27T04:43:53.920Z,5.28
2018-04-27T04:44:27.676Z,5.65
2018-04-27T04:45:02.202Z,5.40
2018-04-27T04:45:36.114Z,5.62
2018-04-27T04:46:09.864Z,5.82
2018-04-27T04:46:44.357Z,5.57
2018-04-27T04:47:18.106Z,5.35
2018-04-27T04:47:51.865Z,5.05
2018-04-27T04:48:25.592Z,5.45
2018-04-27T04:48:59.378Z,5.47
2018-04-27T04:49:32.891Z,6.20
2018-04-27T04:50:06.386Z,5.45
2018-04-27T04:50:40.143Z,5.82
2018-04-27T04:51:13.868Z,5.85
2018-04-27T04:51:47.599Z,5.82
2018-04-27T04:52:22.128Z,5.12
2018-04-27T04:52:56.004Z,5.10
2018-04-27T04:53:30.493Z,6.03
2018-04-27T04:54:04.209Z,5.37
2018-04-27T04:54:37.935Z,6.10
2018-04-27T04:55:11.660Z,5.30
2018-04-27T04:55:45.434Z,5.28
2018-04-27T04:56:19.163Z,5.85
2018-04-27T04:56:53.638Z,5.45
2018-04-27T04:57:27.358Z,5.68
2018-04-27T04:58:01.614Z,5.68
2018-04-27T04:58:35.361Z,6.05
2018-04-27T04:59:09.087Z,5.60
2018-04-27T04:59:42.821Z,6.10
2018-04-27T05:00:17.328Z,6.15
2018-04-27T05:00:50.850Z,6.12
2018-04-27T05:01:24.570Z,5.95
2018-04-27T05:01:58.312Z,5.30
2018-04-27T05:02:32.804Z,6.70
2018-04-27T05:03:06.538Z,6.00
2018-04-27T05:03:40.034Z,6.10
2018-04-27T05:04:13.537Z,6.15
2018-04-27T05:04:47.256Z,6.37
2018-04-27T05:05:20.992Z,6.35
2018-04-27T05:05:54.512Z,6.05
2018-04-27T05:06:28.218Z,6.25
2018-04-27T05:07:01.974Z,7.05
2018-04-27T05:07:35.682Z,6.30
2018-04-27T05:08:09.482Z,6.40
2018-04-27T05:08:44.090Z,6.57
2018-04-27T05:09:17.818Z,5.85
2018-04-27T05:09:52.306Z,6.68
2018-04-27T05:10:26.038Z,6.45
2018-04-27T05:10:59.800Z,6.22
2018-04-27T05:11:34.284Z,6.70
2018-04-27T05:12:07.992Z,5.80
2018-04-27T05:12:41.712Z,6.18
2018-04-27T05:13:15.162Z,6.63
2018-04-27T05:13:49.656Z,6.45
2018-04-27T05:14:23.372Z,6.28
2018-04-27T05:14:57.847Z,6.75
2018-04-27T05:15:31.574Z,6.78
2018-04-27T05:16:05.059Z,6.97
2018-04-27T05:16:39.566Z,6.95
2018-04-27T05:17:14.057Z,6.53
2018-04-27T05:17:47.792Z,6.47
2018-04-27T05:19:26.888Z,6.00
2018-04-27T05:20:00.225Z,6.10
2018-04-27T05:20:33.285Z,6.22
2018-04-27T05:21:07.037Z,6.85
2018-04-27T05:21:41.528Z,6.18
2018-04-27T05:22:15.254Z,6.35
2018-04-27T05:22:49.735Z,5.95
2018-04-27T05:23:23.463Z,6.80
2018-04-27T05:23:57.188Z,6.65
2018-04-27T05:24:30.898Z,6.10
2018-04-27T05:25:03.964Z,6.82
2018-04-27T05:25:37.684Z,6.78
2018-04-27T05:26:11.872Z,6.87
2018-04-27T05:26:45.598Z,6.45
2018-04-27T05:27:19.086Z,7.12
2018-04-27T05:27:52.812Z,7.03
2018-04-27T05:28:26.192Z,6.90
2018-04-27T05:29:00.312Z,7.03
2018-04-27T05:29:34.800Z,6.30
2018-04-27T05:30:08.186Z,7.05
2018-04-27T05:30:42.409Z,6.70
2018-04-27T05:31:24.356Z,5.85
2018-04-27T05:31:57.416Z,6.75
2018-04-27T05:32:30.481Z,6.47
2018-04-27T05:33:05.581Z,6.70
2018-04-27T05:33:39.407Z,6.18
2018-04-27T05:34:12.792Z,7.03
2018-04-27T05:34:45.855Z,6.62
2018-04-27T05:35:18.996Z,6.20
2018-04-27T05:35:52.454Z,6.70
2018-04-27T05:36:26.202Z,5.47
2018-04-27T05:37:00.026Z,6.57
2018-04-27T05:37:33.420Z,6.20
2018-04-27T05:38:07.150Z,6.62
2018-04-27T05:38:41.311Z,6.03
2018-04-27T05:39:14.369Z,6.60
2018-04-27T05:39:47.432Z,6.95
2018-04-27T05:40:20.817Z,6.75
2018-04-27T05:40:53.597Z,6.43
2018-04-27T05:41:26.415Z,6.47
2018-04-27T05:42:00.236Z,6.37
2018-04-27T05:42:33.286Z,6.75
2018-04-27T05:43:07.103Z,6.30
2018-04-27T05:43:40.191Z,6.18
2018-04-27T05:44:12.971Z,6.90
2018-04-27T05:44:46.019Z,6.57
2018-04-27T05:45:18.828Z,6.10
2018-04-27T05:45:52.816Z,5.80
2018-04-27T05:46:25.717Z,7.07
2018-04-27T05:46:58.538Z,5.90
2018-04-27T05:47:31.993Z,6.33
2018-04-27T05:48:05.036Z,5.65
2018-04-27T05:48:38.604Z,6.53
2018-04-27T05:49:12.007Z,6.43
2018-04-27T05:49:45.562Z,6.60
2018-04-27T05:50:18.611Z,6.47
2018-04-27T05:50:51.397Z,5.80
2018-04-27T05:51:24.203Z,7.33
2018-04-27T05:51:57.383Z,6.47
2018-04-27T05:52:31.651Z,6.17
2018-04-27T05:53:04.865Z,6.43
2018-04-27T05:53:38.763Z,6.43
2018-04-27T05:54:12.651Z,6.10
2018-04-27T05:54:46.868Z,6.50
2018-04-27T05:55:20.433Z,6.00
2018-04-27T05:55:53.241Z,6.90
2018-04-27T05:56:26.037Z,6.80
2018-04-27T05:56:58.829Z,6.30
2018-04-27T05:57:32.320Z,7.27
2018-04-27T05:58:05.102Z,6.10
2018-04-27T05:58:39.058Z,6.43
2018-04-27T05:59:12.513Z,6.93
2018-04-27T05:59:45.967Z,5.57
2018-04-27T06:00:19.532Z,6.13
2018-04-27T06:00:52.985Z,6.93
2018-04-27T06:01:26.488Z,6.63
2018-04-27T06:01:59.940Z,6.23
2018-04-27T06:02:33.438Z,5.17
2018-04-27T06:03:06.250Z,6.50
2018-04-27T06:03:50.854Z,6.20
2018-04-27T06:04:24.324Z,5.97
2018-04-27T06:04:57.774Z,5.70
2018-04-27T06:05:31.999Z,5.67
2018-04-27T06:06:05.460Z,5.53
2018-04-27T06:06:39.677Z,6.30
2018-04-27T06:07:13.915Z,6.67
2018-04-27T06:07:47.402Z,6.03
2018-04-27T06:08:20.194Z,6.07
2018-04-27T06:08:53.666Z,6.43
2018-04-27T06:09:26.782Z,6.87
2018-04-27T06:10:01.091Z,5.87
2018-04-27T06:10:35.089Z,6.07
2018-04-27T06:11:08.980Z,6.00
2018-04-27T06:11:43.214Z,6.10
2018-04-27T06:12:16.364Z,6.47
2018-04-27T06:12:50.630Z,6.33
2018-04-27T06:13:24.082Z,7.20
2018-04-27T06:13:57.543Z,6.20
2018-04-27T06:14:31.781Z,6.40
2018-04-27T06:15:04.911Z,5.50
2018-04-27T06:15:38.495Z,6.03
2018-04-27T06:16:12.111Z,5.90
2018-04-27T06:16:45.714Z,6.00
2018-04-27T06:17:19.194Z,6.97
2018-04-27T06:17:52.697Z,6.50
2018-04-27T06:18:25.836Z,5.97
2018-04-27T06:18:59.302Z,6.20
2018-04-27T06:19:33.536Z,6.40
2018-04-27T06:20:06.669Z,6.07
2018-04-27T06:20:40.126Z,6.10
2018-04-27T06:21:13.250Z,7.07
2018-04-27T06:21:47.486Z,7.37
2018-04-27T06:22:20.960Z,6.33
2018-04-27T06:22:54.436Z,7.60
2018-04-27T06:23:27.579Z,7.20
2018-04-27T06:24:01.034Z,8.10
2018-04-27T06:24:34.512Z,6.13
2018-04-27T06:25:07.966Z,6.60
2018-04-27T06:25:41.093Z,6.33
2018-04-27T06:26:13.886Z,6.83
2018-04-27T06:26:48.117Z,6.20
2018-04-27T06:27:21.248Z,6.87
2018-04-27T06:27:54.739Z,6.20
2018-04-27T06:28:27.544Z,6.90
2018-04-27T06:29:00.654Z,6.83
2018-04-27T06:29:34.122Z,6.90
2018-04-27T06:30:06.910Z,7.03
2018-04-27T06:30:40.360Z,6.30
2018-04-27T06:31:14.092Z,6.72
2018-04-27T06:31:47.583Z,6.50
2018-04-27T06:32:20.893Z,6.23
2018-04-27T06:32:54.562Z,6.53
2018-04-27T06:33:28.046Z,7.53
2018-04-27T06:34:01.836Z,7.25
2018-04-27T06:34:35.078Z,6.83
2018-04-27T06:35:09.576Z,7.20
2018-04-27T06:35:43.334Z,6.65
2018-04-27T06:36:16.712Z,6.37
2018-04-27T06:36:49.838Z,6.53
2018-04-27T06:37:23.304Z,6.70
2018-04-27T06:37:56.822Z,7.10
2018-04-27T06:38:30.058Z,7.60
2018-04-27T06:39:03.445Z,6.05
2018-04-27T06:39:37.340Z,7.37
2018-04-27T06:40:11.598Z,6.37
2018-04-27T06:40:45.004Z,7.10
2018-04-27T06:41:18.080Z,7.37
2018-04-27T06:41:51.130Z,7.10
2018-04-27T06:42:23.942Z,6.60
2018-04-27T06:42:57.855Z,7.07
2018-04-27T06:43:30.644Z,6.67
2018-04-27T06:44:03.773Z,6.67
2018-04-27T06:44:37.374Z,6.40
2018-04-27T06:45:10.939Z,6.80
2018-04-27T06:45:43.759Z,7.03
2018-04-27T06:46:17.148Z,5.93
2018-04-27T06:46:49.961Z,7.20
2018-04-27T06:47:22.766Z,6.83
2018-04-27T06:47:55.573Z,6.57
2018-04-27T06:48:28.423Z,5.93
2018-04-27T06:49:02.277Z,7.10
2018-04-27T06:49:36.209Z,6.65
2018-04-27T06:50:09.012Z,6.20
2018-04-27T06:50:42.155Z,6.77
2018-04-27T06:51:14.964Z,7.13
2018-04-27T06:51:47.766Z,7.20
2018-04-27T06:52:21.661Z,6.83
2018-04-27T06:52:55.557Z,7.60
2018-04-27T06:53:29.064Z,7.67
2018-04-27T06:54:02.520Z,6.03
2018-04-27T06:54:36.753Z,6.20
2018-04-27T06:55:10.235Z,6.47
2018-04-27T06:55:43.110Z,7.60
2018-04-27T06:56:15.942Z,6.93
2018-04-27T06:56:49.510Z,6.77
2018-04-27T06:57:22.306Z,7.30
2018-04-27T06:57:55.876Z,7.20
2018-04-27T06:58:28.691Z,6.70
2018-04-27T06:59:01.522Z,8.47
2018-04-27T06:59:35.086Z,5.90
2018-04-27T07:00:08.202Z,6.73
2018-04-27T07:00:40.988Z,7.10
2018-04-27T07:01:13.815Z,7.00
2018-04-27T07:01:46.616Z,7.03
2018-04-27T07:02:19.453Z,6.00
2018-04-27T07:02:53.014Z,6.47
2018-04-27T07:03:25.823Z,6.53
2018-04-27T07:03:59.380Z,5.87
2018-04-27T07:04:32.524Z,6.93
2018-04-27T07:05:05.317Z,7.20
2018-04-27T07:05:38.316Z,6.90
2018-04-27T07:06:11.110Z,6.93
2018-04-27T07:06:44.670Z,7.50
2018-04-27T07:07:17.454Z,7.20
2018-04-27T07:07:51.336Z,6.33
2018-04-27T07:08:24.126Z,6.53
2018-04-27T07:08:56.982Z,6.00
2018-04-27T07:09:29.783Z,5.90
2018-04-27T07:10:02.614Z,7.40
2018-04-27T07:10:36.192Z,6.63
2018-04-27T07:11:08.998Z,7.13
2018-04-27T07:11:41.905Z,6.87
2018-04-27T07:12:14.820Z,6.57
2018-04-27T07:12:48.388Z,6.37
2018-04-27T07:13:21.186Z,6.40
2018-04-27T07:13:54.747Z,5.87
2018-04-27T07:14:27.539Z,6.83
2018-04-27T07:15:01.098Z,7.30
2018-04-27T07:15:33.934Z,6.57
2018-04-27T07:16:07.407Z,6.43
2018-04-27T07:16:40.885Z,5.83
2018-04-27T07:17:14.342Z,6.87
2018-04-27T07:17:47.803Z,6.67
2018-04-27T07:18:21.252Z,6.83
2018-04-27T07:18:54.710Z,6.80
2018-04-27T07:19:28.940Z,6.00
2018-04-27T07:20:02.402Z,6.60
2018-04-27T07:20:36.676Z,6.27
2018-04-27T07:21:10.127Z,7.17
2018-04-27T07:21:43.768Z,6.50
2018-04-27T07:22:17.316Z,6.80
2018-04-27T07:22:50.446Z,6.33
2018-04-27T07:23:23.894Z,6.57
2018-04-27T07:23:57.342Z,6.30
2018-04-27T07:24:30.800Z,6.63
2018-04-27T07:25:03.606Z,5.93
2018-04-27T07:25:36.768Z,6.27
2018-04-27T07:26:09.559Z,5.33
2018-04-27T07:26:43.025Z,6.77
2018-04-27T07:27:16.479Z,5.90
2018-04-27T07:27:49.927Z,5.50
2018-04-27T07:28:23.409Z,6.30
2018-04-27T07:28:56.880Z,6.47
2018-04-27T07:29:30.355Z,5.70
2018-04-27T07:30:03.481Z,6.50
2018-04-27T07:30:37.743Z,6.50
2018-04-27T07:31:10.873Z,5.67
2018-04-27T07:31:45.113Z,6.03
2018-04-27T07:32:18.225Z,6.27